sensor_id;sensor_type;location;lat;lon;timestamp;temperature;humidity
17795;DHT22;9021;50.882;4.326;2023-09-08T00:00:19;23.10;99.90
17795;DHT22;9021;50.882;4.326;2023-09-08T00:02:45;23.10;99.90
17795;DHT22;9021;50.882;4.326;2023-09-08T00:05:10;23.00;99.90
17795;DHT22;9021;50.882;4.326;2023-09-08T00:07:36;23.00;99.90
17795;DHT22;9021;50.882;4.326;2023-09-08T00:10:01;22.90;99.90
17795;DHT22;9021;50.882;4.326;2023-09-08T00:12:27;22.90;99.90
17795;DHT22;9021;50.882;4.326;2023-09-08T00:14:52;22.90;99.90
17795;DHT22;9021;50.882;4.326;2023-09-08T00:17:18;22.90;99.90
17795;DHT22;9021;50.882;4.326;2023-09-08T00:19:43;22.90;99.90
17795;DHT22;9021;50.882;4.326;2023-09-08T00:22:09;22.90;99.90
17795;DHT22;9021;50.882;4.326;2023-09-08T00:24:34;22.90;99.90
17795;DHT22;9021;50.882;4.326;2023-09-08T00:27:00;22.90;99.90
17795;DHT22;9021;50.882;4.326;2023-09-08T00:29:25;22.90;99.90
17795;DHT22;9021;50.882;4.326;2023-09-08T00:31:51;22.80;99.90
17795;DHT22;9021;50.882;4.326;2023-09-08T00:34:16;22.80;99.90
17795;DHT22;9021;50.882;4.326;2023-09-08T00:36:42;22.80;99.90
17795;DHT22;9021;50.882;4.326;2023-09-08T00:39:07;22.70;99.90
17795;DHT22;9021;50.882;4.326;2023-09-08T00:41:33;22.70;99.90
17795;DHT22;9021;50.882;4.326;2023-09-08T00:43:58;22.60;99.90
17795;DHT22;9021;50.882;4.326;2023-09-08T00:46:24;22.70;99.90
17795;DHT22;9021;50.882;4.326;2023-09-08T00:48:53;22.70;99.90
17795;DHT22;9021;50.882;4.326;2023-09-08T00:51:18;22.80;99.90
17795;DHT22;9021;50.882;4.326;2023-09-08T00:53:44;22.80;99.90
17795;DHT22;9021;50.882;4.326;2023-09-08T00:56:09;22.70;99.90
17795;DHT22;9021;50.882;4.326;2023-09-08T00:58:36;22.70;99.90
17795;DHT22;9021;50.882;4.326;2023-09-08T01:01:01;22.70;99.90
17795;DHT22;9021;50.882;4.326;2023-09-08T01:03:27;22.70;99.90
17795;DHT22;9021;50.882;4.326;2023-09-08T01:05:53;22.60;99.90
17795;DHT22;9021;50.882;4.326;2023-09-08T01:08:18;22.60;99.90
17795;DHT22;9021;50.882;4.326;2023-09-08T01:10:44;22.50;99.90
17795;DHT22;9021;50.882;4.326;2023-09-08T01:13:10;22.40;99.90
17795;DHT22;9021;50.882;4.326;2023-09-08T01:15:35;22.40;99.90
17795;DHT22;9021;50.882;4.326;2023-09-08T01:18:01;22.40;99.90
17795;DHT22;9021;50.882;4.326;2023-09-08T01:20:28;22.40;99.90
17795;DHT22;9021;50.882;4.326;2023-09-08T01:23:00;22.50;99.90
17795;DHT22;9021;50.882;4.326;2023-09-08T01:25:27;22.50;99.90
17795;DHT22;9021;50.882;4.326;2023-09-08T01:27:54;22.50;99.90
17795;DHT22;9021;50.882;4.326;2023-09-08T01:30:20;22.50;99.90
17795;DHT22;9021;50.882;4.326;2023-09-08T01:32:46;22.40;99.90
17795;DHT22;9021;50.882;4.326;2023-09-08T01:35:12;22.40;99.90
17795;DHT22;9021;50.882;4.326;2023-09-08T01:37:41;22.40;99.90
17795;DHT22;9021;50.882;4.326;2023-09-08T01:40:07;22.40;99.90
17795;DHT22;9021;50.882;4.326;2023-09-08T01:42:34;22.50;99.90
17795;DHT22;9021;50.882;4.326;2023-09-08T01:44:59;22.40;99.90
17795;DHT22;9021;50.882;4.326;2023-09-08T01:47:25;22.30;99.90
17795;DHT22;9021;50.882;4.326;2023-09-08T01:49:51;22.30;99.90
17795;DHT22;9021;50.882;4.326;2023-09-08T01:52:16;22.20;99.90
17795;DHT22;9021;50.882;4.326;2023-09-08T01:54:41;22.30;99.90
17795;DHT22;9021;50.882;4.326;2023-09-08T01:57:07;22.30;99.90
17795;DHT22;9021;50.882;4.326;2023-09-08T01:59:33;22.20;99.90
17795;DHT22;9021;50.882;4.326;2023-09-08T02:01:58;22.30;99.90
17795;DHT22;9021;50.882;4.326;2023-09-08T02:04:24;22.20;99.90
17795;DHT22;9021;50.882;4.326;2023-09-08T02:06:50;22.20;99.90
17795;DHT22;9021;50.882;4.326;2023-09-08T02:09:15;22.10;99.90
17795;DHT22;9021;50.882;4.326;2023-09-08T02:11:41;22.20;99.90
17795;DHT22;9021;50.882;4.326;2023-09-08T02:14:07;22.20;99.90
17795;DHT22;9021;50.882;4.326;2023-09-08T02:16:33;22.20;99.90
17795;DHT22;9021;50.882;4.326;2023-09-08T02:18:58;22.20;99.90
17795;DHT22;9021;50.882;4.326;2023-09-08T02:21:24;22.10;99.90
17795;DHT22;9021;50.882;4.326;2023-09-08T02:23:50;22.10;99.90
17795;DHT22;9021;50.882;4.326;2023-09-08T02:26:15;22.10;99.90
17795;DHT22;9021;50.882;4.326;2023-09-08T02:28:41;22.10;99.90
17795;DHT22;9021;50.882;4.326;2023-09-08T02:31:06;22.10;99.90
17795;DHT22;9021;50.882;4.326;2023-09-08T02:33:32;22.00;99.90
17795;DHT22;9021;50.882;4.326;2023-09-08T02:36:02;22.00;99.90
17795;DHT22;9021;50.882;4.326;2023-09-08T02:38:27;21.70;99.90
17795;DHT22;9021;50.882;4.326;2023-09-08T02:40:53;22.00;99.90
17795;DHT22;9021;50.882;4.326;2023-09-08T02:43:18;21.90;99.90
17795;DHT22;9021;50.882;4.326;2023-09-08T02:45:44;25.60;99.90
17795;DHT22;9021;50.882;4.326;2023-09-08T02:48:11;21.90;99.90
17795;DHT22;9021;50.882;4.326;2023-09-08T02:50:37;21.90;99.90
17795;DHT22;9021;50.882;4.326;2023-09-08T02:53:03;21.80;99.90
17795;DHT22;9021;50.882;4.326;2023-09-08T02:55:28;17.80;99.90
17795;DHT22;9021;50.882;4.326;2023-09-08T02:57:55;21.90;99.90
17795;DHT22;9021;50.882;4.326;2023-09-08T03:00:21;21.90;99.90
17795;DHT22;9021;50.882;4.326;2023-09-08T03:02:46;21.90;99.90
17795;DHT22;9021;50.882;4.326;2023-09-08T03:05:12;21.80;99.90
17795;DHT22;9021;50.882;4.326;2023-09-08T03:07:37;21.90;99.90
17795;DHT22;9021;50.882;4.326;2023-09-08T03:10:04;21.80;99.90
17795;DHT22;9021;50.882;4.326;2023-09-08T03:12:30;21.80;99.90
17795;DHT22;9021;50.882;4.326;2023-09-08T03:14:55;21.80;99.90
17795;DHT22;9021;50.882;4.326;2023-09-08T03:17:21;21.70;99.90
17795;DHT22;9021;50.882;4.326;2023-09-08T03:19:46;21.70;99.90
17795;DHT22;9021;50.882;4.326;2023-09-08T03:22:12;21.70;99.90
17795;DHT22;9021;50.882;4.326;2023-09-08T03:24:38;21.70;99.90
17795;DHT22;9021;50.882;4.326;2023-09-08T03:27:03;21.70;99.90
17795;DHT22;9021;50.882;4.326;2023-09-08T03:29:29;21.60;99.90
17795;DHT22;9021;50.882;4.326;2023-09-08T03:31:54;21.70;99.90
17795;DHT22;9021;50.882;4.326;2023-09-08T03:34:20;21.60;99.90
17795;DHT22;9021;50.882;4.326;2023-09-08T03:36:46;21.60;99.90
17795;DHT22;9021;50.882;4.326;2023-09-08T03:39:12;21.60;99.90
17795;DHT22;9021;50.882;4.326;2023-09-08T03:41:37;21.60;99.90
17795;DHT22;9021;50.882;4.326;2023-09-08T03:44:03;21.60;99.90
17795;DHT22;9021;50.882;4.326;2023-09-08T03:46:29;21.60;99.90
17795;DHT22;9021;50.882;4.326;2023-09-08T03:48:54;21.50;99.90
17795;DHT22;9021;50.882;4.326;2023-09-08T03:51:24;21.50;99.90
17795;DHT22;9021;50.882;4.326;2023-09-08T03:53:49;21.50;99.90
17795;DHT22;9021;50.882;4.326;2023-09-08T03:56:15;21.40;99.90
17795;DHT22;9021;50.882;4.326;2023-09-08T03:58:40;21.40;99.90
17795;DHT22;9021;50.882;4.326;2023-09-08T04:01:06;21.40;99.90
17795;DHT22;9021;50.882;4.326;2023-09-08T04:03:31;21.40;99.90
17795;DHT22;9021;50.882;4.326;2023-09-08T04:05:57;21.40;99.90
17795;DHT22;9021;50.882;4.326;2023-09-08T04:08:22;21.40;99.90
17795;DHT22;9021;50.882;4.326;2023-09-08T04:10:47;21.50;99.90
17795;DHT22;9021;50.882;4.326;2023-09-08T04:13:13;21.40;99.90
17795;DHT22;9021;50.882;4.326;2023-09-08T04:15:38;21.40;99.90
17795;DHT22;9021;50.882;4.326;2023-09-08T04:18:04;21.30;99.90
17795;DHT22;9021;50.882;4.326;2023-09-08T04:20:30;21.30;99.90
17795;DHT22;9021;50.882;4.326;2023-09-08T04:22:55;21.30;99.90
17795;DHT22;9021;50.882;4.326;2023-09-08T04:25:21;21.20;99.90
17795;DHT22;9021;50.882;4.326;2023-09-08T04:27:46;21.30;99.90
17795;DHT22;9021;50.882;4.326;2023-09-08T04:30:12;21.30;99.90
17795;DHT22;9021;50.882;4.326;2023-09-08T04:32:38;21.20;99.90
17795;DHT22;9021;50.882;4.326;2023-09-08T04:35:04;21.30;99.90
17795;DHT22;9021;50.882;4.326;2023-09-08T04:37:30;21.20;99.90
17795;DHT22;9021;50.882;4.326;2023-09-08T04:39:56;21.20;99.90
17795;DHT22;9021;50.882;4.326;2023-09-08T04:42:21;21.20;99.90
17795;DHT22;9021;50.882;4.326;2023-09-08T04:44:48;21.20;99.90
17795;DHT22;9021;50.882;4.326;2023-09-08T04:47:14;21.20;99.90
17795;DHT22;9021;50.882;4.326;2023-09-08T04:49:39;21.10;99.90
17795;DHT22;9021;50.882;4.326;2023-09-08T04:52:05;21.10;99.90
17795;DHT22;9021;50.882;4.326;2023-09-08T04:54:30;21.10;99.90
17795;DHT22;9021;50.882;4.326;2023-09-08T04:56:57;21.20;99.90
17795;DHT22;9021;50.882;4.326;2023-09-08T04:59:22;21.20;99.90
17795;DHT22;9021;50.882;4.326;2023-09-08T05:01:48;21.20;99.90
17795;DHT22;9021;50.882;4.326;2023-09-08T05:04:14;21.10;99.90
17795;DHT22;9021;50.882;4.326;2023-09-08T05:06:39;21.10;99.90
17795;DHT22;9021;50.882;4.326;2023-09-08T05:09:05;21.10;99.90
17795;DHT22;9021;50.882;4.326;2023-09-08T05:11:31;21.10;99.90
17795;DHT22;9021;50.882;4.326;2023-09-08T05:13:57;21.10;99.90
17795;DHT22;9021;50.882;4.326;2023-09-08T05:16:23;21.10;99.90
17795;DHT22;9021;50.882;4.326;2023-09-08T05:19:03;21.10;99.90
17795;DHT22;9021;50.882;4.326;2023-09-08T05:21:29;21.10;99.90
17795;DHT22;9021;50.882;4.326;2023-09-08T05:23:54;21.10;99.90
17795;DHT22;9021;50.882;4.326;2023-09-08T05:26:20;21.10;99.90
17795;DHT22;9021;50.882;4.326;2023-09-08T05:28:46;21.10;99.90
17795;DHT22;9021;50.882;4.326;2023-09-08T05:31:11;21.10;99.90
17795;DHT22;9021;50.882;4.326;2023-09-08T05:33:37;21.00;99.90
17795;DHT22;9021;50.882;4.326;2023-09-08T05:36:02;21.00;99.90
17795;DHT22;9021;50.882;4.326;2023-09-08T05:38:28;21.10;99.90
17795;DHT22;9021;50.882;4.326;2023-09-08T05:40:54;21.20;99.90
17795;DHT22;9021;50.882;4.326;2023-09-08T05:43:20;21.20;99.90
17795;DHT22;9021;50.882;4.326;2023-09-08T05:45:46;21.10;99.90
17795;DHT22;9021;50.882;4.326;2023-09-08T05:48:11;21.10;99.90
17795;DHT22;9021;50.882;4.326;2023-09-08T05:50:37;21.10;99.90
17795;DHT22;9021;50.882;4.326;2023-09-08T05:53:02;21.20;99.90
17795;DHT22;9021;50.882;4.326;2023-09-08T05:55:28;21.20;99.90
17795;DHT22;9021;50.882;4.326;2023-09-08T05:57:53;21.20;99.90
17795;DHT22;9021;50.882;4.326;2023-09-08T06:00:19;21.20;99.90
17795;DHT22;9021;50.882;4.326;2023-09-08T06:02:45;21.30;99.90
17795;DHT22;9021;50.882;4.326;2023-09-08T06:05:10;21.50;99.90
17795;DHT22;9021;50.882;4.326;2023-09-08T06:07:36;21.60;99.90
17795;DHT22;9021;50.882;4.326;2023-09-08T06:10:01;21.70;99.90
17795;DHT22;9021;50.882;4.326;2023-09-08T06:12:27;21.80;99.90
17795;DHT22;9021;50.882;4.326;2023-09-08T06:14:53;21.80;99.90
17795;DHT22;9021;50.882;4.326;2023-09-08T06:17:18;21.90;99.90
17795;DHT22;9021;50.882;4.326;2023-09-08T06:19:44;22.00;99.90
17795;DHT22;9021;50.882;4.326;2023-09-08T06:22:09;22.10;99.90
17795;DHT22;9021;50.882;4.326;2023-09-08T06:24:34;22.10;99.90
17795;DHT22;9021;50.882;4.326;2023-09-08T06:27:00;22.10;99.90
17795;DHT22;9021;50.882;4.326;2023-09-08T06:29:26;22.20;99.90
17795;DHT22;9021;50.882;4.326;2023-09-08T06:31:51;22.30;99.90
17795;DHT22;9021;50.882;4.326;2023-09-08T06:34:17;22.40;99.90
17795;DHT22;9021;50.882;4.326;2023-09-08T06:36:46;22.40;99.90
17795;DHT22;9021;50.882;4.326;2023-09-08T06:39:12;22.50;99.90
17795;DHT22;9021;50.882;4.326;2023-09-08T06:41:38;22.60;99.90
17795;DHT22;9021;50.882;4.326;2023-09-08T06:44:03;22.80;99.90
17795;DHT22;9021;50.882;4.326;2023-09-08T06:46:30;23.20;99.90
17795;DHT22;9021;50.882;4.326;2023-09-08T06:48:55;27.30;99.90
17795;DHT22;9021;50.882;4.326;2023-09-08T06:51:21;25.60;99.90
17795;DHT22;9021;50.882;4.326;2023-09-08T06:53:53;26.60;99.90
17795;DHT22;9021;50.882;4.326;2023-09-08T06:56:19;27.10;99.90
17795;DHT22;9021;50.882;4.326;2023-09-08T06:58:45;27.80;99.90
17795;DHT22;9021;50.882;4.326;2023-09-08T07:01:10;28.80;99.90
17795;DHT22;9021;50.882;4.326;2023-09-08T07:03:36;29.80;99.90
17795;DHT22;9021;50.882;4.326;2023-09-08T07:06:02;30.20;99.90
17795;DHT22;9021;50.882;4.326;2023-09-08T07:08:28;30.90;99.90
17795;DHT22;9021;50.882;4.326;2023-09-08T07:10:53;29.20;98.50
17795;DHT22;9021;50.882;4.326;2023-09-08T07:13:19;33.40;97.60
17795;DHT22;9021;50.882;4.326;2023-09-08T07:15:44;34.60;96.80
17795;DHT22;9021;50.882;4.326;2023-09-08T07:18:10;35.80;94.90
17795;DHT22;9021;50.882;4.326;2023-09-08T07:20:36;36.60;93.40
17795;DHT22;9021;50.882;4.326;2023-09-08T07:23:01;37.50;92.40
17795;DHT22;9021;50.882;4.326;2023-09-08T07:25:27;38.20;91.30
17795;DHT22;9021;50.882;4.326;2023-09-08T07:27:52;38.80;90.40
17795;DHT22;9021;50.882;4.326;2023-09-08T07:30:19;39.10;88.50
17795;DHT22;9021;50.882;4.326;2023-09-08T07:32:44;39.10;88.60
17795;DHT22;9021;50.882;4.326;2023-09-08T07:35:10;39.70;87.00
17795;DHT22;9021;50.882;4.326;2023-09-08T07:37:39;40.00;86.10
17795;DHT22;9021;50.882;4.326;2023-09-08T07:40:06;40.50;84.90
17795;DHT22;9021;50.882;4.326;2023-09-08T07:42:31;41.00;83.90
17795;DHT22;9021;50.882;4.326;2023-09-08T07:44:57;41.10;83.40
17795;DHT22;9021;50.882;4.326;2023-09-08T07:47:22;41.30;82.60
17795;DHT22;9021;50.882;4.326;2023-09-08T07:49:48;41.90;81.70
17795;DHT22;9021;50.882;4.326;2023-09-08T07:52:14;42.00;81.30
17795;DHT22;9021;50.882;4.326;2023-09-08T07:54:39;41.50;81.40
17795;DHT22;9021;50.882;4.326;2023-09-08T07:57:05;41.00;81.70
17795;DHT22;9021;50.882;4.326;2023-09-08T07:59:30;40.10;82.20
17795;DHT22;9021;50.882;4.326;2023-09-08T08:01:56;39.60;82.80
17795;DHT22;9021;50.882;4.326;2023-09-08T08:04:21;39.00;83.40
17795;DHT22;9021;50.882;4.326;2023-09-08T08:06:47;38.30;83.80
17795;DHT22;9021;50.882;4.326;2023-09-08T08:09:13;38.00;84.40
17795;DHT22;9021;50.882;4.326;2023-09-08T08:11:38;37.50;84.80
17795;DHT22;9021;50.882;4.326;2023-09-08T08:14:04;36.80;85.90
17795;DHT22;9021;50.882;4.326;2023-09-08T08:16:29;35.80;86.60
17795;DHT22;9021;50.882;4.326;2023-09-08T08:18:55;34.80;88.40
17795;DHT22;9021;50.882;4.326;2023-09-08T08:21:21;34.00;89.80
17795;DHT22;9021;50.882;4.326;2023-09-08T08:23:48;33.20;90.30
17795;DHT22;9021;50.882;4.326;2023-09-08T08:26:13;30.50;90.20
17795;DHT22;9021;50.882;4.326;2023-09-08T08:28:39;31.90;91.40
17795;DHT22;9021;50.882;4.326;2023-09-08T08:31:05;31.50;92.00
17795;DHT22;9021;50.882;4.326;2023-09-08T08:33:30;31.00;92.50
17795;DHT22;9021;50.882;4.326;2023-09-08T08:35:56;30.60;93.00
17795;DHT22;9021;50.882;4.326;2023-09-08T08:38:21;30.40;93.40
17795;DHT22;9021;50.882;4.326;2023-09-08T08:40:47;30.10;93.70
17795;DHT22;9021;50.882;4.326;2023-09-08T08:43:13;29.90;94.00
17795;DHT22;9021;50.882;4.326;2023-09-08T08:45:39;29.70;94.20
17795;DHT22;9021;50.882;4.326;2023-09-08T08:48:05;29.50;94.50
17795;DHT22;9021;50.882;4.326;2023-09-08T08:50:31;29.30;95.10
17795;DHT22;9021;50.882;4.326;2023-09-08T08:52:57;29.20;95.40
17795;DHT22;9021;50.882;4.326;2023-09-08T08:55:24;29.10;95.50
17795;DHT22;9021;50.882;4.326;2023-09-08T08:57:50;29.00;95.80
17795;DHT22;9021;50.882;4.326;2023-09-08T09:00:16;29.00;95.90
17795;DHT22;9021;50.882;4.326;2023-09-08T09:02:43;29.00;96.20
17795;DHT22;9021;50.882;4.326;2023-09-08T09:05:13;28.90;96.40
17795;DHT22;9021;50.882;4.326;2023-09-08T09:07:41;28.80;96.70
17795;DHT22;9021;50.882;4.326;2023-09-08T09:10:07;28.70;96.80
17795;DHT22;9021;50.882;4.326;2023-09-08T09:12:33;28.70;97.30
17795;DHT22;9021;50.882;4.326;2023-09-08T09:14:59;28.60;97.30
17795;DHT22;9021;50.882;4.326;2023-09-08T09:17:25;28.60;97.30
17795;DHT22;9021;50.882;4.326;2023-09-08T09:19:53;28.60;97.50
17795;DHT22;9021;50.882;4.326;2023-09-08T09:22:36;28.50;97.40
17795;DHT22;9021;50.882;4.326;2023-09-08T09:25:02;28.50;98.30
17795;DHT22;9021;50.882;4.326;2023-09-08T09:27:30;28.60;98.40
17795;DHT22;9021;50.882;4.326;2023-09-08T09:29:56;28.60;98.30
17795;DHT22;9021;50.882;4.326;2023-09-08T09:32:23;28.60;97.80
17795;DHT22;9021;50.882;4.326;2023-09-08T09:34:50;28.70;97.80
17795;DHT22;9021;50.882;4.326;2023-09-08T09:37:18;28.60;97.80
17795;DHT22;9021;50.882;4.326;2023-09-08T09:39:48;28.60;97.90
17795;DHT22;9021;50.882;4.326;2023-09-08T09:42:13;28.70;97.80
17795;DHT22;9021;50.882;4.326;2023-09-08T09:44:39;28.80;97.90
17795;DHT22;9021;50.882;4.326;2023-09-08T09:47:05;28.80;98.00
17795;DHT22;9021;50.882;4.326;2023-09-08T09:49:32;28.80;98.00
17795;DHT22;9021;50.882;4.326;2023-09-08T09:52:06;28.80;98.50
17795;DHT22;9021;50.882;4.326;2023-09-08T09:54:31;28.80;97.10
17795;DHT22;9021;50.882;4.326;2023-09-08T09:56:57;28.60;97.20
17795;DHT22;9021;50.882;4.326;2023-09-08T09:59:23;28.60;97.50
17795;DHT22;9021;50.882;4.326;2023-09-08T10:01:48;28.80;97.50
17795;DHT22;9021;50.882;4.326;2023-09-08T10:04:17;28.50;97.70
17795;DHT22;9021;50.882;4.326;2023-09-08T10:06:43;28.60;97.90
17795;DHT22;9021;50.882;4.326;2023-09-08T10:09:08;28.70;97.80
17795;DHT22;9021;50.882;4.326;2023-09-08T10:11:41;28.80;97.20
17795;DHT22;9021;50.882;4.326;2023-09-08T10:14:07;29.00;97.60
17795;DHT22;9021;50.882;4.326;2023-09-08T10:16:36;28.80;97.80
17795;DHT22;9021;50.882;4.326;2023-09-08T10:19:04;28.70;97.80
17795;DHT22;9021;50.882;4.326;2023-09-08T10:21:32;28.80;97.30
17795;DHT22;9021;50.882;4.326;2023-09-08T10:24:43;28.90;97.40
17795;DHT22;9021;50.882;4.326;2023-09-08T10:29:22;29.30;96.40
17795;DHT22;9021;50.882;4.326;2023-09-08T10:31:48;29.40;96.30
17795;DHT22;9021;50.882;4.326;2023-09-08T10:34:13;29.40;96.00
17795;DHT22;9021;50.882;4.326;2023-09-08T10:36:39;29.60;96.80
17795;DHT22;9021;50.882;4.326;2023-09-08T10:41:49;30.00;95.90
17795;DHT22;9021;50.882;4.326;2023-09-08T10:44:15;30.10;94.90
17795;DHT22;9021;50.882;4.326;2023-09-08T10:46:41;30.20;96.40
17795;DHT22;9021;50.882;4.326;2023-09-08T10:49:07;30.30;94.70
17795;DHT22;9021;50.882;4.326;2023-09-08T10:51:32;30.30;94.80
17795;DHT22;9021;50.882;4.326;2023-09-08T10:53:58;30.10;94.80
17795;DHT22;9021;50.882;4.326;2023-09-08T10:56:47;30.20;96.00
17795;DHT22;9021;50.882;4.326;2023-09-08T10:59:16;30.40;94.50
17795;DHT22;9021;50.882;4.326;2023-09-08T11:01:42;30.60;93.80
17795;DHT22;9021;50.882;4.326;2023-09-08T11:04:09;30.80;94.10
17795;DHT22;9021;50.882;4.326;2023-09-08T11:06:36;30.90;93.80
17795;DHT22;9021;50.882;4.326;2023-09-08T11:09:08;31.20;93.60
17795;DHT22;9021;50.882;4.326;2023-09-08T11:11:34;31.80;93.00
17795;DHT22;9021;50.882;4.326;2023-09-08T11:14:02;32.40;93.10
17795;DHT22;9021;50.882;4.326;2023-09-08T11:16:27;32.70;92.70
17795;DHT22;9021;50.882;4.326;2023-09-08T11:18:56;33.40;91.90
17795;DHT22;9021;50.882;4.326;2023-09-08T11:21:22;34.90;90.10
17795;DHT22;9021;50.882;4.326;2023-09-08T11:23:47;36.70;87.30
17795;DHT22;9021;50.882;4.326;2023-09-08T11:26:13;38.30;85.50
17795;DHT22;9021;50.882;4.326;2023-09-08T11:28:39;40.10;84.20
17795;DHT22;9021;50.882;4.326;2023-09-08T11:31:05;41.50;81.00
17795;DHT22;9021;50.882;4.326;2023-09-08T11:33:33;42.60;77.00
17795;DHT22;9021;50.882;4.326;2023-09-08T11:35:58;43.60;75.70
17795;DHT22;9021;50.882;4.326;2023-09-08T11:38:27;42.20;72.90
17795;DHT22;9021;50.882;4.326;2023-09-08T11:40:54;45.30;72.40
17795;DHT22;9021;50.882;4.326;2023-09-08T11:43:20;45.80;71.90
17795;DHT22;9021;50.882;4.326;2023-09-08T11:45:46;45.80;71.00
17795;DHT22;9021;50.882;4.326;2023-09-08T11:48:13;46.10;70.40
17795;DHT22;9021;50.882;4.326;2023-09-08T11:50:39;46.40;70.20
17795;DHT22;9021;50.882;4.326;2023-09-08T11:53:06;46.70;68.80
17795;DHT22;9021;50.882;4.326;2023-09-08T11:55:34;46.50;68.70
17795;DHT22;9021;50.882;4.326;2023-09-08T11:58:01;46.40;68.50
17795;DHT22;9021;50.882;4.326;2023-09-08T12:00:26;46.30;68.90
17795;DHT22;9021;50.882;4.326;2023-09-08T12:02:52;45.20;70.50
17795;DHT22;9021;50.882;4.326;2023-09-08T12:05:24;45.60;70.20
17795;DHT22;9021;50.882;4.326;2023-09-08T12:07:50;46.10;69.00
17795;DHT22;9021;50.882;4.326;2023-09-08T12:10:16;45.90;69.80
17795;DHT22;9021;50.882;4.326;2023-09-08T12:12:53;46.10;69.40
17795;DHT22;9021;50.882;4.326;2023-09-08T12:15:38;46.50;68.70
17795;DHT22;9021;50.882;4.326;2023-09-08T12:18:04;47.00;68.40
17795;DHT22;9021;50.882;4.326;2023-09-08T12:20:30;47.10;68.20
17795;DHT22;9021;50.882;4.326;2023-09-08T12:23:15;47.00;67.90
17795;DHT22;9021;50.882;4.326;2023-09-08T12:25:51;46.70;68.20
17795;DHT22;9021;50.882;4.326;2023-09-08T12:28:17;46.60;68.60
17795;DHT22;9021;50.882;4.326;2023-09-08T12:30:43;46.50;68.30
17795;DHT22;9021;50.882;4.326;2023-09-08T12:33:09;44.80;69.80
17795;DHT22;9021;50.882;4.326;2023-09-08T12:35:35;44.90;70.20
17795;DHT22;9021;50.882;4.326;2023-09-08T12:38:02;45.00;69.90
17795;DHT22;9021;50.882;4.326;2023-09-08T12:40:29;45.40;70.10
17795;DHT22;9021;50.882;4.326;2023-09-08T12:42:55;45.40;69.80
17795;DHT22;9021;50.882;4.326;2023-09-08T12:45:21;45.40;69.70
17795;DHT22;9021;50.882;4.326;2023-09-08T12:47:48;45.20;69.90
17795;DHT22;9021;50.882;4.326;2023-09-08T12:50:13;45.40;69.70
17795;DHT22;9021;50.882;4.326;2023-09-08T12:52:39;45.20;69.90
17795;DHT22;9021;50.882;4.326;2023-09-08T12:55:05;44.40;70.70
17795;DHT22;9021;50.882;4.326;2023-09-08T12:57:31;44.20;71.40
17795;DHT22;9021;50.882;4.326;2023-09-08T12:59:56;43.70;71.50
17795;DHT22;9021;50.882;4.326;2023-09-08T13:02:22;43.40;71.60
17795;DHT22;9021;50.882;4.326;2023-09-08T13:04:47;43.10;73.00
17795;DHT22;9021;50.882;4.326;2023-09-08T13:07:17;42.70;72.40
17795;DHT22;9021;50.882;4.326;2023-09-08T13:09:43;42.50;72.50
17795;DHT22;9021;50.882;4.326;2023-09-08T13:12:08;42.30;72.90
17795;DHT22;9021;50.882;4.326;2023-09-08T13:14:35;42.20;73.00
17795;DHT22;9021;50.882;4.326;2023-09-08T13:17:01;41.90;73.90
17795;DHT22;9021;50.882;4.326;2023-09-08T13:19:26;41.20;73.60
17795;DHT22;9021;50.882;4.326;2023-09-08T13:21:52;40.80;74.30
17795;DHT22;9021;50.882;4.326;2023-09-08T13:24:17;40.50;75.30
17795;DHT22;9021;50.882;4.326;2023-09-08T13:26:44;40.20;75.10
17795;DHT22;9021;50.882;4.326;2023-09-08T13:29:09;39.90;75.30
17795;DHT22;9021;50.882;4.326;2023-09-08T13:31:35;39.50;76.80
17795;DHT22;9021;50.882;4.326;2023-09-08T13:34:00;38.70;77.10
17795;DHT22;9021;50.882;4.326;2023-09-08T13:36:26;38.00;79.30
17795;DHT22;9021;50.882;4.326;2023-09-08T13:38:52;37.90;79.50
17795;DHT22;9021;50.882;4.326;2023-09-08T13:41:17;38.00;79.20
17795;DHT22;9021;50.882;4.326;2023-09-08T13:43:43;38.10;78.50
17795;DHT22;9021;50.882;4.326;2023-09-08T13:46:08;37.90;78.50
17795;DHT22;9021;50.882;4.326;2023-09-08T13:48:34;37.70;79.30
17795;DHT22;9021;50.882;4.326;2023-09-08T13:51:02;37.50;79.10
17795;DHT22;9021;50.882;4.326;2023-09-08T13:53:28;37.10;79.40
17795;DHT22;9021;50.882;4.326;2023-09-08T13:55:54;37.10;80.40
17795;DHT22;9021;50.882;4.326;2023-09-08T13:58:20;37.00;79.90
17795;DHT22;9021;50.882;4.326;2023-09-08T14:00:45;36.90;81.40
17795;DHT22;9021;50.882;4.326;2023-09-08T14:03:14;36.70;80.30
17795;DHT22;9021;50.882;4.326;2023-09-08T14:05:39;36.60;80.10
17795;DHT22;9021;50.882;4.326;2023-09-08T14:08:05;36.30;80.30
17795;DHT22;9021;50.882;4.326;2023-09-08T14:10:31;36.20;81.40
17795;DHT22;9021;50.882;4.326;2023-09-08T14:12:56;36.10;82.30
17795;DHT22;9021;50.882;4.326;2023-09-08T14:15:21;36.20;82.40
17795;DHT22;9021;50.882;4.326;2023-09-08T14:17:47;36.20;82.60
17795;DHT22;9021;50.882;4.326;2023-09-08T14:20:13;36.20;82.00
17795;DHT22;9021;50.882;4.326;2023-09-08T14:22:38;36.30;82.50
17795;DHT22;9021;50.882;4.326;2023-09-08T14:25:04;36.20;82.80
17795;DHT22;9021;50.882;4.326;2023-09-08T14:27:30;36.20;82.90
17795;DHT22;9021;50.882;4.326;2023-09-08T14:29:55;36.10;82.70
17795;DHT22;9021;50.882;4.326;2023-09-08T14:32:21;36.20;82.40
17795;DHT22;9021;50.882;4.326;2023-09-08T14:34:48;36.20;83.40
17795;DHT22;9021;50.882;4.326;2023-09-08T14:37:13;36.20;83.10
17795;DHT22;9021;50.882;4.326;2023-09-08T14:39:39;36.20;85.10
17795;DHT22;9021;50.882;4.326;2023-09-08T14:42:04;36.30;84.10
17795;DHT22;9021;50.882;4.326;2023-09-08T14:44:30;36.10;84.50
17795;DHT22;9021;50.882;4.326;2023-09-08T14:46:56;36.00;85.70
17795;DHT22;9021;50.882;4.326;2023-09-08T14:49:21;36.00;84.20
17795;DHT22;9021;50.882;4.326;2023-09-08T14:51:47;36.00;85.40
17795;DHT22;9021;50.882;4.326;2023-09-08T14:54:12;36.00;85.40
17795;DHT22;9021;50.882;4.326;2023-09-08T14:56:38;35.90;84.30
17795;DHT22;9021;50.882;4.326;2023-09-08T14:59:03;35.80;84.30
17795;DHT22;9021;50.882;4.326;2023-09-08T15:01:29;35.70;83.00
17795;DHT22;9021;50.882;4.326;2023-09-08T15:03:54;35.50;84.40
17795;DHT22;9021;50.882;4.326;2023-09-08T15:06:21;35.50;83.80
17795;DHT22;9021;50.882;4.326;2023-09-08T15:08:46;35.50;83.90
17795;DHT22;9021;50.882;4.326;2023-09-08T15:11:13;35.40;84.30
17795;DHT22;9021;50.882;4.326;2023-09-08T15:13:38;35.30;84.10
17795;DHT22;9021;50.882;4.326;2023-09-08T15:16:04;35.30;84.90
17795;DHT22;9021;50.882;4.326;2023-09-08T15:18:30;35.30;84.40
17795;DHT22;9021;50.882;4.326;2023-09-08T15:20:55;35.30;86.00
17795;DHT22;9021;50.882;4.326;2023-09-08T15:23:21;35.20;86.50
17795;DHT22;9021;50.882;4.326;2023-09-08T15:25:54;35.20;85.90
17795;DHT22;9021;50.882;4.326;2023-09-08T15:28:20;35.20;86.30
17795;DHT22;9021;50.882;4.326;2023-09-08T15:30:49;35.10;85.70
17795;DHT22;9021;50.882;4.326;2023-09-08T15:33:15;35.10;86.90
17795;DHT22;9021;50.882;4.326;2023-09-08T15:35:41;34.90;85.40
17795;DHT22;9021;50.882;4.326;2023-09-08T15:38:07;34.80;86.40
17795;DHT22;9021;50.882;4.326;2023-09-08T15:40:32;34.80;87.00
17795;DHT22;9021;50.882;4.326;2023-09-08T15:42:58;34.80;87.40